Time;durP1;ratioP1;P1;durP2;ratioP2;P2;SDS_P1;SDS_P2;PMS_P1;PMS_P2;Temp;Humidity;BMP_temperature;BMP_pressure;BME280_temperature;BME280_humidity;BME280_pressure;Samples;Min_cycle;Max_cycle;Signal;HPM_P1;HPM_P2
2021/03/26 00:01:59;;;;;;;30.70;15.43;;;;;;;7.05;100.00;98665.55;3691523;79;45079;-25
2021/03/26 00:07:07;;;;;;;32.27;16.77;;;;;;;7.02;100.00;98664.96;3692379;79;44027;-25
2021/03/26 00:12:15;;;;;;;35.58;17.25;;;;;;;7.00;100.00;98662.91;3689920;79;77391;-25
2021/03/26 00:17:21;;;;;;;30.67;16.97;;;;;;;7.01;100.00;98672.13;3635544;80;43979;-25
2021/03/26 00:22:27;;;;;;;31.37;15.97;;;;;;;6.98;100.00;98671.08;3637487;80;44127;-25
2021/03/26 00:27:33;;;;;;;35.77;16.13;;;;;;;6.90;100.00;98666.85;3690367;79;43397;-25
2021/03/26 00:32:40;;;;;;;32.00;15.50;;;;;;;6.84;100.00;98672.25;3632466;80;44596;-26
2021/03/26 00:37:46;;;;;;;29.42;15.53;;;;;;;6.79;100.00;98669.13;3689778;79;43580;-26
2021/03/26 00:42:52;;;;;;;30.63;15.63;;;;;;;6.72;100.00;98664.78;3631159;80;44018;-26
2021/03/26 00:47:59;;;;;;;29.33;14.53;;;;;;;6.69;100.00;98658.34;3634631;80;43026;-25
2021/03/26 00:53:08;;;;;;;32.97;15.60;;;;;;;6.71;100.00;98656.39;3711162;78;77382;-25
2021/03/26 00:58:15;;;;;;;27.63;14.53;;;;;;;6.72;100.00;98648.72;3690138;78;74193;-25
2021/03/26 01:03:23;;;;;;;33.13;15.87;;;;;;;6.73;100.00;98648.22;3698532;78;43129;-25
2021/03/26 01:08:32;;;;;;;31.87;15.63;;;;;;;6.70;100.00;98647.16;3707898;78;77598;-25
2021/03/26 01:13:39;;;;;;;26.17;14.18;;;;;;;6.69;100.00;98650.31;3692547;78;73401;-25
2021/03/26 01:18:47;;;;;;;29.73;14.53;;;;;;;6.63;100.00;98653.53;3690985;78;43677;-25
2021/03/26 01:23:54;;;;;;;27.02;14.40;;;;;;;6.58;100.00;98651.25;3702646;78;44051;-25
2021/03/26 01:29:02;;;;;;;26.68;13.60;;;;;;;6.52;100.00;98650.41;3696588;78;43681;-25
2021/03/26 01:34:09;;;;;;;29.10;14.58;;;;;;;6.47;100.00;98644.11;3687201;78;75586;-25
2021/03/26 01:39:21;;;;;;;28.17;14.17;;;;;;;6.45;100.00;98639.38;3704294;78;26792;-25
2021/03/26 01:44:29;;;;;;;23.92;12.63;;;;;;;6.45;100.00;98638.53;3699820;78;26695;-26
2021/03/26 01:49:41;;;;;;;25.23;13.43;;;;;;;6.40;100.00;98628.70;3700527;78;26898;-25
2021/03/26 01:54:48;;;;;;;22.70;12.40;;;;;;;6.35;100.00;98633.61;3715284;78;43682;-25
2021/03/26 01:59:55;;;;;;;27.83;13.63;;;;;;;6.31;100.00;98622.28;3725199;78;44045;-25
2021/03/26 02:05:02;;;;;;;24.27;12.33;;;;;;;6.21;100.00;98610.19;3723094;78;43736;-25
2021/03/26 02:10:20;;;;;;;25.47;13.50;;;;;;;6.09;100.00;98606.70;3717876;78;26378;-25
2021/03/26 02:15:31;;;;;;;24.63;13.20;;;;;;;6.14;100.00;98600.48;3716035;78;43136;-25
2021/03/26 02:20:44;;;;;;;25.30;13.57;;;;;;;6.20;100.00;98604.95;3707960;78;73316;-25
2021/03/26 02:25:52;;;;;;;23.92;12.75;;;;;;;6.25;100.00;98600.91;3723975;78;26381;-25
2021/03/26 02:31:01;;;;;;;21.12;12.10;;;;;;;6.27;100.00;98605.64;3725775;78;43445;-25
2021/03/26 02:36:44;;;;;;;24.50;12.53;;;;;;;6.40;100.00;98612.16;3725780;78;43339;-25
2021/03/26 02:41:55;;;;;;;22.43;12.43;;;;;;;6.36;100.00;98619.22;3722472;78;26744;-25
2021/03/26 02:47:11;;;;;;;21.48;12.33;;;;;;;6.23;100.00;98625.62;3718973;78;26872;-25
2021/03/26 02:52:24;;;;;;;23.03;12.60;;;;;;;6.10;100.00;98629.80;3729166;78;43224;-25
2021/03/26 02:57:34;;;;;;;26.05;13.25;;;;;;;5.90;100.00;98637.27;3735789;78;44007;-25
2021/03/26 03:02:42;;;;;;;24.80;13.40;;;;;;;5.76;100.00;98635.23;3723538;78;43155;-25
2021/03/26 03:07:54;;;;;;;22.23;12.60;;;;;;;5.58;100.00;98638.91;3731231;78;43730;-25
2021/03/26 03:13:12;;;;;;;27.07;13.47;;;;;;;5.44;100.00;98637.36;3734500;78;26797;-25
2021/03/26 03:18:23;;;;;;;23.73;13.13;;;;;;;5.35;100.00;98641.61;3732683;78;43707;-25
2021/03/26 03:23:33;;;;;;;23.97;13.40;;;;;;;5.28;100.00;98641.75;3733252;78;43369;-24
2021/03/26 03:28:52;;;;;;;27.53;13.77;;;;;;;5.21;100.00;98645.86;3712405;78;26800;-24
2021/03/26 03:34:08;;;;;;;25.37;12.90;;;;;;;5.17;100.00;98641.76;3733334;78;26410;-24
2021/03/26 03:39:17;;;;;;;26.87;14.73;;;;;;;5.08;100.00;98637.98;3734971;78;44043;-25
2021/03/26 03:44:27;;;;;;;26.50;14.70;;;;;;;5.03;100.00;98643.69;3721491;78;26841;-24
2021/03/26 03:49:37;;;;;;;26.50;13.27;;;;;;;5.04;100.00;98640.52;3732986;78;44448;-24
2021/03/26 03:54:48;;;;;;;25.37;13.03;;;;;;;5.05;100.00;98655.57;3720872;78;44013;-24
2021/03/26 03:59:59;;;;;;;22.63;12.70;;;;;;;5.07;100.00;98645.63;3711916;78;43298;-24
2021/03/26 04:05:11;;;;;;;23.83;12.43;;;;;;;5.08;100.00;98651.34;3723465;78;26450;-24
2021/03/26 04:10:19;;;;;;;23.97;13.47;;;;;;;5.15;100.00;98649.87;3712153;78;43369;-24
2021/03/26 04:15:29;;;;;;;25.20;13.17;;;;;;;5.15;100.00;98648.53;3719163;79;43128;-24
2021/03/26 04:20:39;;;;;;;26.50;14.58;;;;;;;5.15;100.00;98649.03;3712539;78;73233;-24
2021/03/26 04:25:50;;;;;;;22.93;13.00;;;;;;;5.19;100.00;98651.34;3708513;78;44010;-25
2021/03/26 04:31:17;;;;;;;23.47;14.53;;;;;;;5.19;100.00;98658.48;3711845;78;26447;-24
2021/03/26 04:36:28;;;;;;;22.40;13.03;;;;;;;5.12;100.00;98655.44;3722070;78;26748;-25
2021/03/26 04:41:39;;;;;;;26.87;13.30;;;;;;;5.04;100.00;98649.39;3716231;79;27391;-24
2021/03/26 04:46:49;;;;;;;25.60;14.27;;;;;;;4.99;100.00;98660.08;3730186;78;43715;-25
2021/03/26 04:52:00;;;;;;;24.07;14.27;;;;;;;4.91;100.00;98658.83;3720062;78;26508;-25
2021/03/26 04:57:10;;;;;;;30.70;15.87;;;;;;;4.96;100.00;98664.31;3730342;78;26497;-25
2021/03/26 05:02:20;;;;;;;27.13;14.63;;;;;;;5.00;100.00;98663.95;3729426;79;26437;-24
2021/03/26 05:07:32;;;;;;;26.97;14.93;;;;;;;5.04;100.00;98669.42;3735609;78;43453;-25
2021/03/26 05:12:43;;;;;;;32.17;16.20;;;;;;;5.06;100.00;98662.62;3721902;78;43262;-25
2021/03/26 05:17:54;;;;;;;27.27;15.27;;;;;;;5.08;100.00;98668.20;3728744;78;26807;-23
2021/03/26 05:23:04;;;;;;;26.13;15.20;;;;;;;5.15;100.00;98669.90;3705676;78;44478;-23
2021/03/26 05:28:32;;;;;;;29.63;16.17;;;;;;;5.16;100.00;98674.27;3733048;78;27009;-25
2021/03/26 05:33:42;;;;;;;29.23;15.33;;;;;;;5.20;100.00;98669.53;3687963;78;26333;-22
2021/03/26 05:38:52;;;;;;;31.53;16.03;;;;;;;5.22;100.00;98671.14;3675229;78;43088;-23
2021/03/26 05:44:38;;;;;;;28.73;15.50;;;;;;;5.18;100.00;98668.80;3700072;78;27641;-23
2021/03/26 05:49:52;;;;;;;27.97;15.63;;;;;;;5.19;100.00;98668.70;3574785;81;44026;-26
2021/03/26 05:55:14;;;;;;;29.77;15.33;;;;;;;5.28;100.00;98681.82;3715842;78;42325;-26
2021/03/26 06:00:45;;;;;;;28.47;15.60;;;;;;;5.31;100.00;98677.55;3700667;78;42416;-26
2021/03/26 06:06:36;;;;;;;32.43;16.87;;;;;;;5.35;100.00;98678.18;3718307;78;27789;-26
2021/03/26 06:12:14;;;;;;;34.23;16.97;;;;;;;5.40;100.00;98674.17;3716421;78;26729;-25
2021/03/26 06:18:04;;;;;;;37.20;18.70;;;;;;;5.47;100.00;98673.66;3703231;78;26355;-25
2021/03/26 06:23:51;;;;;;;34.63;17.80;;;;;;;5.60;100.00;98665.03;3725366;78;26391;-26
2021/03/26 06:29:03;;;;;;;31.30;16.60;;;;;;;5.80;100.00;98670.11;3725603;78;26312;-25
2021/03/26 06:34:31;;;;;;;30.17;16.63;;;;;;;5.93;100.00;98662.42;3721146;78;77391;-26
2021/03/26 06:40:00;;;;;;;33.47;17.23;;;;;;;6.05;100.00;98664.59;3713246;78;44102;-26
2021/03/26 06:45:38;;;;;;;30.37;17.17;;;;;;;6.17;100.00;98671.10;3712494;78;44384;-26
2021/03/26 06:50:53;;;;;;;28.80;17.23;;;;;;;6.27;100.00;98665.84;3712215;78;43714;-26
2021/03/26 06:56:54;;;;;;;31.63;17.87;;;;;;;6.41;100.00;98670.04;3718249;78;44075;-23
2021/03/26 07:02:29;;;;;;;28.43;15.83;;;;;;;6.62;100.00;98678.09;3661798;79;77755;-25
2021/03/26 07:07:58;;;;;;;28.73;15.95;;;;;;;6.83;100.00;98681.26;3716554;78;44873;-25
2021/03/26 07:13:34;;;;;;;29.80;16.47;;;;;;;6.97;100.00;98686.80;3718304;78;77516;-25
2021/03/26 07:18:48;;;;;;;27.85;17.02;;;;;;;7.15;100.00;98690.19;3713017;78;44063;-25
2021/03/26 07:24:24;;;;;;;29.73;17.40;;;;;;;7.29;100.00;98688.50;3713333;78;44125;-25
2021/03/26 07:29:46;;;;;;;30.37;17.12;;;;;;;7.42;100.00;98693.62;3718741;78;44079;-25
2021/03/26 07:35:18;;;;;;;26.30;15.43;;;;;;;7.57;100.00;98692.80;3721448;78;44225;-25
2021/03/26 07:40:38;;;;;;;28.97;15.53;;;;;;;7.74;100.00;98703.84;3720892;78;44093;-24
2021/03/26 07:46:01;;;;;;;24.85;14.93;;;;;;;7.93;100.00;98695.88;3721451;78;43435;-24
2021/03/26 07:51:13;;;;;;;25.27;15.70;;;;;;;8.07;100.00;98693.75;3716306;78;43994;-24
2021/03/26 07:56:49;;;;;;;27.70;16.62;;;;;;;8.14;100.00;98692.23;3718794;78;43400;-24
2021/03/26 08:02:11;;;;;;;25.97;17.20;;;;;;;8.35;100.00;98691.25;3718163;78;44379;-24
2021/03/26 08:08:07;;;;;;;24.77;14.93;;;;;;;8.44;100.00;98685.91;3718324;78;43594;-24
2021/03/26 08:13:33;;;;;;;26.52;15.32;;;;;;;8.48;100.00;98687.84;3682312;78;44456;-25
2021/03/26 08:18:44;;;;;;;25.62;15.83;;;;;;;8.69;98.45;98688.17;3724318;78;43371;-24
2021/03/26 08:23:58;;;;;;;26.07;15.85;;;;;;;8.98;98.64;98688.13;3719298;78;43022;-25
2021/03/26 08:29:18;;;;;;;26.95;16.52;;;;;;;9.07;96.14;98687.25;3720141;78;44562;-24
2021/03/26 08:35:04;;;;;;;25.17;16.02;;;;;;;9.29;95.69;98686.55;3726770;78;44439;-24
2021/03/26 08:40:14;;;;;;;29.18;16.10;;;;;;;9.47;94.73;98694.70;3711464;79;44464;-24
2021/03/26 08:45:35;;;;;;;25.43;15.00;;;;;;;9.75;93.76;98693.38;3714843;78;44030;-24
2021/03/26 08:50:45;;;;;;;25.45;16.02;;;;;;;10.02;90.26;98691.17;3713713;79;44429;-24
2021/03/26 08:56:07;;;;;;;27.85;16.10;;;;;;;10.01;91.43;98690.83;3730306;78;43725;-24
2021/03/26 09:01:56;;;;;;;26.85;16.30;;;;;;;10.21;90.11;98694.75;3729483;78;42778;-24
2021/03/26 09:07:11;;;;;;;27.90;17.32;;;;;;;10.32;90.39;98693.67;3636974;79;44056;-24
2021/03/26 09:12:30;;;;;;;32.38;17.67;;;;;;;10.52;87.32;98697.09;3688795;79;43381;-24
2021/03/26 09:17:41;;;;;;;31.77;18.00;;;;;;;10.82;88.66;98689.59;3692112;79;43967;-24
2021/03/26 09:23:14;;;;;;;40.15;23.12;;;;;;;10.98;89.50;98698.81;3692384;79;44056;-24
2021/03/26 09:28:32;;;;;;;42.53;24.30;;;;;;;11.17;85.45;98695.08;3668324;79;43690;-25
2021/03/26 09:33:41;;;;;;;35.98;21.25;;;;;;;11.36;85.23;98689.45;3690307;79;44056;-25
2021/03/26 09:38:53;;;;;;;33.48;20.70;;;;;;;11.53;84.64;98692.26;3690038;79;43140;-24
2021/03/26 09:44:02;;;;;;;49.20;26.02;;;;;;;11.61;85.40;98688.76;3690301;79;43560;-25
2021/03/26 09:49:20;;;;;;;44.90;24.32;;;;;;;11.83;84.98;98687.31;3686483;79;44013;-25
2021/03/26 09:54:38;;;;;;;43.25;24.30;;;;;;;12.11;83.54;98691.16;3702665;77;43066;-25
2021/03/26 09:59:49;;;;;;;41.92;25.68;;;;;;;12.07;83.61;98692.00;3711243;78;44133;-25
2021/03/26 10:04:59;;;;;;;45.75;26.85;;;;;;;12.04;80.00;98687.44;3742326;77;43474;-25
2021/03/26 10:15:43;;;;;;;42.15;25.77;;;;;;;12.29;80.36;98685.11;3741457;77;43456;-25
2021/03/26 10:20:53;;;;;;;54.53;29.60;;;;;;;12.28;80.57;98682.11;3733879;77;42861;-25
2021/03/26 10:26:07;;;;;;;44.50;25.88;;;;;;;12.51;78.61;98673.35;3736288;77;43358;-27
2021/03/26 10:31:16;;;;;;;62.65;31.68;;;;;;;12.72;76.07;98672.00;3664813;80;44039;-27
2021/03/26 10:36:25;;;;;;;39.42;23.85;;;;;;;12.91;76.28;98663.53;3681294;79;43717;-27
2021/03/26 10:41:37;;;;;;;42.55;26.42;;;;;;;13.02;76.15;98658.30;3633042;80;43322;-28
2021/03/26 10:46:46;;;;;;;45.65;27.25;;;;;;;13.20;73.06;98652.69;3636439;80;43718;-28
2021/03/26 10:51:55;;;;;;;46.53;28.42;;;;;;;13.11;72.46;98652.37;3714824;79;44000;-27
2021/03/26 10:57:16;;;;;;;42.45;26.35;;;;;;;13.34;70.64;98647.58;3684536;79;43421;-28
2021/03/26 11:02:42;;;;;;;41.30;25.20;;;;;;;13.29;69.34;98636.42;3667488;80;44075;-26
2021/03/26 11:07:51;;;;;;;40.43;25.17;;;;;;;13.77;69.17;98630.52;3627827;80;43354;-27
2021/03/26 11:13:03;;;;;;;42.95;26.75;;;;;;;14.23;70.19;98625.66;3614799;81;44498;-27
2021/03/26 11:18:13;;;;;;;42.15;25.20;;;;;;;14.23;68.83;98616.70;3601016;81;43337;-27
2021/03/26 11:23:24;;;;;;;38.88;24.40;;;;;;;13.50;66.26;98609.65;3564609;82;43721;-27
2021/03/26 11:28:33;;;;;;;41.80;24.47;;;;;;;13.62;67.65;98599.30;3559781;82;43338;-27
2021/03/26 11:33:50;;;;;;;37.05;23.65;;;;;;;14.02;67.42;98592.47;3619917;81;44920;-27
2021/03/26 11:39:01;;;;;;;39.73;24.92;;;;;;;14.09;68.17;98593.42;3622916;80;44077;-27
2021/03/26 11:44:09;;;;;;;34.48;22.87;;;;;;;14.08;68.98;98586.31;3612883;81;44202;-27
2021/03/26 11:49:19;;;;;;;35.05;22.75;;;;;;;14.02;66.95;98581.10;3604454;81;44025;-27
2021/03/26 11:54:36;;;;;;;32.17;21.05;;;;;;;13.95;66.13;98580.64;3612966;81;44023;-27
2021/03/26 11:59:59;;;;;;;37.30;22.65;;;;;;;14.21;65.57;98562.70;3659931;79;44070;-27
2021/03/26 12:05:17;;;;;;;36.58;21.73;;;;;;;14.29;64.17;98562.63;3663584;79;26434;-27
2021/03/26 12:10:29;;;;;;;30.68;19.95;;;;;;;14.79;62.86;98552.72;3660525;79;43833;-27
2021/03/26 12:15:39;;;;;;;32.03;19.23;;;;;;;15.04;53.36;98551.93;3663478;79;43705;-27
2021/03/26 12:20:45;;;;;;;24.77;15.63;;;;;;;15.53;54.54;98538.25;3660689;79;44066;-27
2021/03/26 12:26:02;;;;;;;22.62;14.23;;;;;;;15.35;50.88;98525.09;3663505;79;44048;-27
2021/03/26 12:31:17;;;;;;;20.37;12.63;;;;;;;15.49;52.11;98520.69;3662965;79;43336;-27
2021/03/26 12:36:27;;;;;;;16.95;10.88;;;;;;;15.37;54.75;98519.48;3661691;79;44756;-27
2021/03/26 12:41:40;;;;;;;14.68;9.73;;;;;;;15.02;52.44;98514.64;3661489;79;43989;-27
2021/03/26 12:47:25;;;;;;;27.75;17.77;;;;;;;15.48;50.10;98494.56;3663958;81;44092;-27
2021/03/26 12:52:55;;;;;;;23.62;14.85;;;;;;;15.73;51.74;98503.72;3640468;79;43205;-27
2021/03/26 12:58:26;;;;;;;23.62;15.78;;;;;;;15.89;51.51;98494.50;3676973;78;43795;-27
2021/03/26 13:03:36;;;;;;;21.00;13.78;;;;;;;15.96;50.34;98484.52;3687729;78;44449;-27
2021/03/26 13:08:45;;;;;;;5.65;3.40;;;;;;;16.24;51.95;98481.52;3693900;78;43956;-27
2021/03/26 13:14:00;;;;;;;6.95;3.87;;;;;;;16.07;44.21;98482.31;3698005;78;43957;-27
2021/03/26 13:19:08;;;;;;;6.15;3.75;;;;;;;16.36;43.85;98463.63;3694208;78;43419;-27
2021/03/26 13:24:24;;;;;;;5.83;4.00;;;;;;;17.25;40.28;98463.43;3695070;78;44180;-27
2021/03/26 13:29:33;;;;;;;6.42;4.42;;;;;;;17.49;43.40;98462.56;3703851;78;44484;-27
2021/03/26 13:34:42;;;;;;;7.22;4.33;;;;;;;17.19;41.31;98453.37;3684703;78;43358;-27
2021/03/26 13:39:50;;;;;;;6.80;4.50;;;;;;;16.48;43.22;98440.83;3650675;79;43288;-28
2021/03/26 13:45:06;;;;;;;5.33;3.85;;;;;;;15.92;42.52;98442.50;3727296;78;44039;-27
2021/03/26 13:50:32;;;;;;;5.60;3.95;;;;;;;16.32;43.24;98438.72;3736757;78;44099;-28
2021/03/26 13:55:40;;;;;;;4.97;4.03;;;;;;;16.93;42.02;98433.13;3732201;78;44065;-27
2021/03/26 14:00:49;;;;;;;5.42;4.33;;;;;;;17.85;40.99;98430.05;3730693;78;43423;-27
2021/03/26 14:06:05;;;;;;;6.45;4.53;;;;;;;17.86;40.99;98430.90;3732288;78;43721;-27
2021/03/26 14:11:28;;;;;;;4.72;4.20;;;;;;;17.53;40.68;98428.94;3696201;78;44040;-27
2021/03/26 14:16:44;;;;;;;5.62;4.20;;;;;;;17.95;39.35;98420.61;3699924;78;43973;-27
2021/03/26 14:22:03;;;;;;;6.87;4.90;;;;;;;17.30;40.98;98417.06;3603214;81;44126;-27
2021/03/26 14:27:33;;;;;;;6.35;4.92;;;;;;;17.36;39.89;98414.86;3696269;78;44043;-27
2021/03/26 14:32:44;;;;;;;8.95;4.60;;;;;;;18.28;38.69;98398.00;3701917;78;44052;-27
2021/03/26 14:37:55;;;;;;;6.80;4.70;;;;;;;17.73;39.22;98400.37;3699559;79;43322;-28
2021/03/26 14:43:05;;;;;;;6.75;4.72;;;;;;;18.27;38.29;98393.05;3702306;79;44118;-28
2021/03/26 14:48:20;;;;;;;5.95;4.80;;;;;;;18.47;37.39;98388.94;3703839;78;43184;-27
2021/03/26 14:53:29;;;;;;;6.40;4.90;;;;;;;17.93;39.57;98385.40;3685722;78;44029;-27
2021/03/26 14:58:39;;;;;;;6.28;4.70;;;;;;;17.92;40.44;98378.80;3698270;78;43221;-27
2021/03/26 15:03:55;;;;;;;6.92;5.12;;;;;;;18.01;40.58;98378.39;3690233;78;44010;-26
2021/03/26 15:09:10;;;;;;;8.50;4.72;;;;;;;17.27;42.01;98376.63;3694612;78;43345;-25
2021/03/26 15:14:20;;;;;;;7.25;4.78;;;;;;;17.13;43.46;98372.50;3704686;78;43396;-25
2021/03/26 15:19:29;;;;;;;7.58;4.47;;;;;;;16.97;43.91;98367.45;3709962;78;43554;-25
2021/03/26 15:25:21;;;;;;;8.13;5.20;;;;;;;16.87;41.65;98356.90;3699322;78;42703;-25
2021/03/26 15:30:33;;;;;;;7.40;4.85;;;;;;;16.59;42.43;98361.39;3701154;78;43118;-25
2021/03/26 15:35:44;;;;;;;5.37;4.12;;;;;;;16.34;42.72;98350.19;3709037;78;44014;-25
2021/03/26 15:40:54;;;;;;;5.97;4.40;;;;;;;16.56;43.91;98350.91;3706067;78;44077;-26
2021/03/26 15:46:03;;;;;;;7.95;4.47;;;;;;;16.91;42.21;98350.02;3701597;78;43488;-24
2021/03/26 15:51:21;;;;;;;6.47;4.42;;;;;;;16.65;42.21;98348.87;3702213;78;43709;-25
2021/03/26 15:56:31;;;;;;;5.65;4.30;;;;;;;17.33;41.87;98339.05;3698191;78;43846;-24
2021/03/26 16:02:02;;;;;;;5.72;4.78;;;;;;;17.94;42.16;98335.80;3719112;78;42896;-25
2021/03/26 16:07:20;;;;;;;6.25;4.47;;;;;;;18.15;41.89;98327.95;3721392;78;43652;-24
2021/03/26 16:13:00;;;;;;;6.10;4.33;;;;;;;18.63;41.48;98324.87;3727323;78;43357;-25
2021/03/26 16:18:27;;;;;;;5.22;4.20;;;;;;;18.71;40.57;98323.80;3721666;78;44064;-25
2021/03/26 16:24:04;;;;;;;5.67;3.95;;;;;;;17.74;40.80;98324.40;3725640;78;43759;-25
2021/03/26 16:29:31;;;;;;;5.65;3.95;;;;;;;17.17;41.54;98316.61;3716167;78;43994;-25
2021/03/26 16:34:49;;;;;;;6.05;4.47;;;;;;;17.27;41.39;98315.36;3721442;78;44123;-25
2021/03/26 16:39:59;;;;;;;7.80;4.40;;;;;;;17.43;40.93;98309.53;3710756;79;44017;-24
2021/03/26 16:45:19;;;;;;;6.50;4.67;;;;;;;17.64;42.50;98313.09;3718037;79;43674;-25
2021/03/26 16:50:30;;;;;;;7.33;4.85;;;;;;;17.83;42.50;98314.13;3716547;78;43342;-25
2021/03/26 16:55:40;;;;;;;5.55;3.90;;;;;;;17.64;41.33;98311.19;3715162;78;43674;-24
2021/03/26 17:01:36;;;;;;;5.90;4.00;;;;;;;17.05;42.11;98305.48;3713557;78;43123;-25
2021/03/26 17:07:03;;;;;;;6.40;4.42;;;;;;;16.71;42.61;98302.33;3681801;78;43381;-24
2021/03/26 17:12:45;;;;;;;8.60;4.75;;;;;;;15.98;44.35;98302.30;3714653;78;42768;-24
2021/03/26 17:18:23;;;;;;;10.60;5.03;;;;;;;15.84;45.64;98295.89;3724608;78;44125;-24
2021/03/26 17:23:53;;;;;;;11.83;6.83;;;;;;;15.48;45.59;98293.65;3718026;78;43308;-24
2021/03/26 17:29:09;;;;;;;12.93;8.78;;;;;;;15.04;46.50;98286.58;3730471;78;43560;-24
2021/03/26 17:34:31;;;;;;;10.28;8.15;;;;;;;14.85;47.36;98285.33;3723866;78;43299;-24
2021/03/26 17:40:08;;;;;;;13.18;7.80;;;;;;;14.71;46.99;98285.18;3720527;78;43392;-25
2021/03/26 17:45:33;;;;;;;8.58;6.05;;;;;;;14.41;48.73;98294.69;3725916;78;44026;-24
2021/03/26 17:50:48;;;;;;;8.55;5.45;;;;;;;14.18;49.59;98287.52;3721587;78;43292;-24
2021/03/26 17:56:29;;;;;;;7.58;4.87;;;;;;;14.00;50.10;98283.00;3718820;78;44055;-24
2021/03/26 18:01:44;;;;;;;6.83;3.90;;;;;;;13.81;50.96;98281.19;3655669;79;44527;-24
2021/03/26 18:07:09;;;;;;;10.80;8.38;;;;;;;13.70;51.27;98277.06;3563218;82;42606;-24
2021/03/26 18:12:19;;;;;;;9.03;5.62;;;;;;;13.55;51.74;98277.05;3618331;81;43462;-24
2021/03/26 18:17:40;;;;;;;7.97;4.90;;;;;;;13.36;52.76;98281.08;3600914;81;43400;-24
2021/03/26 18:22:56;;;;;;;7.62;4.60;;;;;;;13.12;53.77;98279.93;3586050;81;44537;-29
2021/03/26 18:28:29;;;;;;;7.30;4.30;;;;;;;12.76;55.36;98274.59;3592427;81;43759;-29
2021/03/26 18:34:02;;;;;;;5.25;4.03;;;;;;;12.49;56.94;98272.74;3598766;81;44886;-24
2021/03/26 18:39:36;;;;;;;6.62;4.10;;;;;;;12.27;58.06;98271.17;3598668;81;44127;-24
2021/03/26 18:45:05;;;;;;;7.78;4.67;;;;;;;12.14;58.34;98269.02;3626538;81;43941;-24
2021/03/26 18:50:36;;;;;;;7.15;4.55;;;;;;;11.94;58.67;98261.80;3618848;81;44059;-24
2021/03/26 18:55:58;;;;;;;5.53;4.45;;;;;;;11.84;58.68;98262.50;3631701;80;43395;-24
2021/03/26 19:01:27;;;;;;;6.37;4.45;;;;;;;11.73;58.94;98265.09;3627801;80;43682;-23
2021/03/26 19:06:38;;;;;;;10.32;5.20;;;;;;;11.63;59.15;98257.69;3566362;81;44058;-24
2021/03/26 19:12:02;;;;;;;6.37;5.22;;;;;;;11.38;60.21;98251.81;3704304;78;43665;-24
2021/03/26 19:17:16;;;;;;;7.20;5.53;;;;;;;11.18;61.33;98256.72;3699791;78;43970;-24
2021/03/26 19:22:30;;;;;;;8.55;6.22;;;;;;;11.06;61.70;98244.58;3704802;78;43682;-24
2021/03/26 19:27:56;;;;;;;9.68;6.85;;;;;;;10.98;62.00;98237.86;3702952;78;44449;-24
2021/03/26 19:33:09;;;;;;;12.10;6.60;;;;;;;10.96;62.44;98240.73;3699656;78;44858;-24
2021/03/26 19:38:20;;;;;;;9.20;6.83;;;;;;;10.93;62.63;98250.49;3702169;78;43385;-24
2021/03/26 19:43:30;;;;;;;8.93;6.60;;;;;;;10.91;62.67;98244.42;3703243;78;43073;-24
2021/03/26 19:48:40;;;;;;;16.48;12.10;;;;;;;10.80;63.29;98244.27;3704372;78;44817;-24
2021/03/26 19:53:55;;;;;;;35.88;21.60;;;;;;;10.79;63.10;98237.19;3699113;78;43686;-24
2021/03/26 19:59:15;;;;;;;11.40;6.10;;;;;;;10.77;63.05;98233.81;3698566;78;43106;-24
2021/03/26 20:04:30;;;;;;;7.50;5.85;;;;;;;10.74;63.29;98236.83;3718660;78;44070;-25
2021/03/26 20:09:48;;;;;;;7.75;6.03;;;;;;;10.74;62.92;98235.00;3721167;78;43677;-25
2021/03/26 20:14:59;;;;;;;12.20;7.22;;;;;;;10.79;62.75;98228.58;3716956;78;43712;-26
2021/03/26 20:20:19;;;;;;;8.50;6.40;;;;;;;10.92;62.40;98223.20;3718497;78;43361;-27
2021/03/26 20:26:05;;;;;;;9.20;6.10;;;;;;;10.82;62.83;98223.36;3743922;78;44277;-27
2021/03/26 20:31:18;;;;;;;12.10;7.08;;;;;;;10.73;63.73;98221.19;3717711;78;43331;-26
2021/03/26 20:36:27;;;;;;;9.50;6.47;;;;;;;10.74;63.84;98219.32;3721420;78;44226;-27
2021/03/26 20:42:03;;;;;;;11.28;6.83;;;;;;;10.74;64.16;98213.44;3723109;78;43164;-27
2021/03/26 20:47:23;;;;;;;10.23;6.22;;;;;;;10.74;64.42;98207.19;3712756;78;43337;-25
2021/03/26 20:52:34;;;;;;;8.95;6.53;;;;;;;10.67;65.12;98202.98;3710831;78;44506;-25
2021/03/26 20:57:48;;;;;;;10.40;6.80;;;;;;;10.58;65.85;98197.25;3721919;78;44594;-25
2021/03/26 21:03:04;;;;;;;9.45;5.90;;;;;;;10.52;66.28;98191.20;3720739;78;43976;-25
2021/03/26 21:08:18;;;;;;;9.98;7.12;;;;;;;10.46;66.83;98190.84;3716805;78;43338;-26
2021/03/26 21:13:31;;;;;;;9.50;6.97;;;;;;;10.44;66.70;98179.39;3714791;78;44005;-26
2021/03/26 21:18:57;;;;;;;9.85;6.12;;;;;;;10.44;66.52;98175.34;3612490;81;44083;-26
2021/03/26 21:24:07;;;;;;;7.65;6.30;;;;;;;10.43;66.53;98181.74;3587890;81;44002;-26
2021/03/26 21:29:23;;;;;;;8.13;6.17;;;;;;;10.37;67.26;98175.66;3597458;82;43784;-24
2021/03/26 21:34:45;;;;;;;9.70;6.37;;;;;;;10.32;67.44;98171.26;3589942;81;44129;-25
2021/03/26 21:40:27;;;;;;;11.33;6.97;;;;;;;10.28;67.93;98171.27;3561069;82;43425;-24
2021/03/26 21:45:43;;;;;;;9.60;6.65;;;;;;;10.25;68.03;98164.86;3632759;80;43422;-25
2021/03/26 21:50:57;;;;;;;12.60;7.55;;;;;;;10.21;68.56;98159.46;3563365;82;43370;-26
2021/03/26 21:56:16;;;;;;;9.68;7.28;;;;;;;10.12;69.30;98153.21;3653416;80;44002;-25
2021/03/26 22:01:26;;;;;;;9.80;7.37;;;;;;;9.97;70.34;98152.53;3647459;80;44470;-25
2021/03/26 22:06:48;;;;;;;11.20;7.67;;;;;;;9.94;70.59;98144.78;3595139;81;44009;-25
2021/03/26 22:11:57;;;;;;;11.25;7.80;;;;;;;9.87;71.27;98143.76;3563666;82;44038;-25
2021/03/26 22:17:22;;;;;;;10.35;7.92;;;;;;;9.84;71.62;98142.73;3652331;80;43985;-25
2021/03/26 22:22:41;;;;;;;12.18;7.95;;;;;;;9.81;71.90;98142.56;3650141;80;42931;-25
2021/03/26 22:28:12;;;;;;;10.70;7.45;;;;;;;9.67;73.07;98137.28;3619904;80;44543;-25
2021/03/26 22:33:24;;;;;;;12.03;8.38;;;;;;;9.69;73.18;98144.70;3592785;80;43263;-25
2021/03/26 22:38:33;;;;;;;12.77;7.93;;;;;;;9.76;72.50;98135.47;3609038;81;75273;-25
2021/03/26 22:43:40;;;;;;;11.48;7.92;;;;;;;9.87;72.42;98139.72;3666043;80;43450;-24
2021/03/26 22:48:50;;;;;;;13.13;7.90;;;;;;;9.91;71.98;98129.47;3620417;80;43238;-25
2021/03/26 22:54:24;;;;;;;10.45;7.60;;;;;;;9.90;72.30;98126.44;3625464;81;43338;-24
2021/03/26 22:59:36;;;;;;;11.85;7.75;;;;;;;9.78;73.58;98123.19;3560963;82;43445;-24
2021/03/26 23:04:45;;;;;;;11.28;7.97;;;;;;;9.70;74.28;98111.41;3651287;80;44098;-24
2021/03/26 23:09:54;;;;;;;14.33;8.45;;;;;;;9.64;74.81;98101.81;3651903;80;43425;-24
2021/03/26 23:15:04;;;;;;;11.05;7.92;;;;;;;9.50;75.89;98096.05;3651819;80;44358;-24
2021/03/26 23:20:14;;;;;;;13.03;7.97;;;;;;;9.49;75.82;98092.18;3652065;80;44082;-24
2021/03/26 23:25:25;;;;;;;10.63;7.53;;;;;;;9.52;75.82;98090.52;3652558;80;43935;-24
2021/03/26 23:30:34;;;;;;;9.85;7.65;;;;;;;9.50;76.10;98083.94;3652270;80;44068;-24
2021/03/26 23:35:42;;;;;;;12.98;7.70;;;;;;;9.50;76.33;98076.39;3648658;80;43092;-24
2021/03/26 23:40:51;;;;;;;11.50;8.23;;;;;;;9.46;76.75;98073.19;3656213;80;43535;-24
2021/03/26 23:46:00;;;;;;;11.10;7.47;;;;;;;9.49;76.45;98059.91;3652778;80;44053;-24
2021/03/26 23:51:11;;;;;;;11.78;7.85;;;;;;;9.52;76.06;98056.39;3648679;80;43498;-24
2021/03/26 23:56:19;;;;;;;11.08;7.55;;;;;;;9.55;75.81;98046.66;3649750;80;44017;-24
